Latest Weather Observations for Middle Percy Island

IDQ60801

Issued at 9:13 pm EST Saturday 9 May 2026 (issued every 10 minutes, with the page automatically refreshed every 10 minutes)

About weather observations | Map of weather stations | Latest weather observations for QLD | Other Formats
Station Details ID: 200001 Name: MIDDLE PERCY ISLAND Lat: -21.66 Lon: 150.27 Height: 208.7 m
Data from the previous 72 hours. | See also: Recent months at Middle Percy Island
Date/Time
EST
Temp
°C
App
Temp
°C
Dew
Point
°C
Rel
Hum
%
Delta-T
°C
Wind Press
QNH
hPa
Press
MSL
hPa
Rain since
9am
mm
Dir  Spd
km/h
Gust
km/h
Spd
kts
Gust
kts
09/09:00pm 21.1 18.3 16.3 74 2.9 SE 26 37 14 20 1022.2 1021.4 0.0
09/08:30pm 21.3 18.7 17.9 81 2.1 SSE 28 43 15 23 1022.0 1021.2 0.0
09/08:00pm 21.0 18.5 17.0 78 2.5 SE 26 39 14 21 1021.9 1021.1 0.0
09/07:30pm 20.9 18.6 17.5 81 2.1 SE 26 41 14 22 1021.6 1020.8 0.0
09/07:00pm 20.9 18.0 17.9 83 1.9 SE 30 41 16 22 1021.2 1020.3 0.0
09/06:30pm 20.8 18.5 18.4 86 1.5 SE 28 39 15 21 1020.9 1020.0 0.0
09/06:00pm 20.7 17.8 17.9 84 1.7 SE 30 43 16 23 1020.6 1019.7 0.0
09/05:30pm 20.6 18.5 18.0 85 1.6 SE 26 41 14 22 1020.5 1019.6 0.0
09/05:00pm 20.7 19.0 18.1 85 1.6 SE 24 39 13 21 1020.1 1019.3 0.0
09/04:30pm 20.9 18.8 18.1 84 1.8 SE 26 37 14 20 1019.8 1019.0 0.0
09/04:00pm 21.0 18.7 17.6 81 2.1 SSE 26 35 14 19 1019.6 1018.8 0.0
09/03:30pm 20.9 18.2 17.5 81 2.1 SSE 28 35 15 19 1019.3 1018.5 0.0
09/03:00pm 21.0 18.2 17.2 79 2.3 SSE 28 39 15 21 1019.0 1018.2 0.0
09/02:30pm 21.1 18.1 16.9 77 2.6 SSE 28 37 15 20 1019.0 1018.2 0.0
09/02:00pm 21.5 18.6 17.1 76 2.7 SSE 28 37 15 20 1019.1 1018.3 0.0
09/01:30pm 21.7 18.7 16.9 74 3.0 SSE 28 37 15 20 1019.2 1018.4 0.0
09/01:00pm 21.8 19.3 17.0 74 3.0 SSE 26 39 14 21 1019.3 1018.5 0.0
09/12:30pm 21.4 18.1 16.1 72 3.2 SSE 28 37 15 20 1019.7 1018.9 0.0
09/12:00pm 21.4 18.3 15.5 69 3.5 SSE 26 37 14 20 1020.1 1019.3 0.0
09/11:30am 20.9 16.9 15.2 70 3.4 S 30 39 16 21 1020.7 1019.8 0.0
09/11:00am 20.2 15.2 13.9 67 3.7 S 33 41 18 22 1021.1 1020.2 0.0
09/10:30am 20.4 15.8 13.4 64 4.0 S 30 39 16 21 1021.2 1020.3 0.0
09/10:00am 20.3 15.7 13.5 65 3.9 SSE 30 43 16 23 1021.4 1020.5 0.0
09/09:30am 20.1 16.0 13.8 67 3.7 SSE 28 37 15 20 1021.2 1020.3 0.0
09/09:00am 19.9 15.7 13.4 66 3.7 SSE 28 39 15 21 1021.0 1020.1 0.0
09/08:30am 19.4 14.2 12.7 65 3.8 SSE 32 39 17 21 1020.8 1019.9 0.0
09/08:00am 19.0 14.1 12.5 66 3.7 SSE 30 37 16 20 1020.5 1019.6 0.0
09/07:30am 18.9 14.3 12.4 66 3.7 SSE 28 39 15 21 1020.2 1019.4 0.0
09/07:00am 18.6 13.9 11.9 65 3.7 SSE 28 39 15 21 1020.0 1019.2 0.0
09/06:30am 18.5 13.6 11.3 63 4.0 SSE 28 39 15 21 1019.8 1019.0 0.0
09/06:00am 18.4 13.8 11.0 62 4.0 SSE 26 35 14 19 1019.5 1018.7 0.0
09/05:30am 18.4 13.4 11.0 62 4.1 SSE 28 39 15 21 1019.1 1018.3 0.0
09/05:00am 18.6 13.2 10.9 61 4.2 SSE 30 39 16 21 1018.8 1018.0 0.0
09/04:30am 18.8 13.8 10.9 60 4.3 SSE 28 35 15 19 1018.7 1017.9 0.0
09/04:00am 18.9 14.0 11.2 61 4.2 SSE 28 39 15 21 1018.5 1017.7 0.0
09/03:30am 18.8 14.3 12.5 67 3.6 S 28 37 15 20 1018.5 1017.7 0.0
09/03:00am 18.9 14.8 12.6 67 3.6 SSE 26 35 14 19 1018.5 1017.7 0.0
09/02:30am 19.0 15.2 12.5 66 3.7 S 24 35 13 19 1018.6 1017.8 0.0
09/02:00am 19.0 15.4 12.0 64 3.9 S 22 32 12 17 1018.9 1018.1 0.0
09/01:30am 19.0 14.9 11.3 61 4.3 S 24 32 13 17 1019.1 1018.3 0.0
09/01:00am 19.1 14.4 10.6 58 4.6 S 26 35 14 19 1019.2 1018.4 0.0
09/12:30am 19.1 14.2 9.9 55 5.0 S 26 32 14 17 1019.4 1018.6 0.0
09/12:00am 19.3 14.9 8.9 51 5.5 S 22 32 12 17 1019.6 1018.8 0.0
 
Date/Time
EST
Temp
°C
App
Temp
°C
Dew
Point
°C
Rel
Hum
%
Delta-T
°C
Wind Press
QNH
hPa
Press
MSL
hPa
Rain since
9am
mm
Dir  Spd
km/h
Gust
km/h
Spd
kts
Gust
kts
08/11:30pm 19.3 14.9 8.9 51 5.5 S 22 33 12 18 1019.6 1018.8 0.0
08/11:00pm 19.6 15.4 9.8 53 5.3 SSE 22 33 12 18 1019.8 1019.0 0.0
08/10:30pm 20.0 14.5 7.7 45 6.4 S 26 35 14 19 1020.0 1019.2 0.0
08/10:00pm 19.8 15.6 9.7 52 5.4 S 22 28 12 15 1020.1 1019.3 0.0
08/09:30pm 19.8 15.8 10.5 55 5.1 SSE 22 28 12 15 1020.2 1019.4 0.0
08/09:00pm 19.8 16.3 10.8 56 4.9 SSE 20 26 11 14 1020.4 1019.5 0.0
08/08:30pm 19.9 16.7 11.9 60 4.5 SSE 20 28 11 15 1020.1 1019.3 0.0
08/08:00pm 19.6 16.6 12.1 62 4.2 SSE 19 26 10 14 1020.1 1019.3 0.0
08/07:30pm 19.6 16.6 12.4 63 4.1 SSE 20 26 11 14 1019.7 1018.9 0.0
08/07:00pm 19.7 16.7 12.5 63 4.1 SSE 20 28 11 15 1019.3 1018.5 0.0
08/06:30pm 19.5 16.8 12.8 65 3.8 SSE 19 26 10 14 1019.0 1018.2 0.0
08/06:00pm 19.2 16.9 12.9 67 3.6 SSE 17 22 9 12 1018.7 1017.9 0.0
08/05:30pm 19.1 17.3 13.3 69 3.3 SE 15 20 8 11 1018.4 1017.6 0.0
08/05:00pm 19.6 17.5 12.4 63 4.1 SE 15 20 8 11 1018.2 1017.4 0.0
08/04:30pm 20.0 17.5 12.3 61 4.4 SSE 17 22 9 12 1018.0 1017.2 0.0
08/04:00pm 20.4 17.4 12.1 59 4.7 S 19 24 10 13 1017.6 1016.8 0.0
08/03:30pm 20.5 17.4 12.2 59 4.7 SSE 20 26 11 14 1017.3 1016.4 0.0
08/03:00pm 20.6 17.1 12.3 59 4.7 S 22 30 12 16 1017.4 1016.6 0.0
08/02:30pm 20.4 16.4 11.9 58 4.8 SSE 24 32 13 17 1017.5 1016.7 0.0
08/02:00pm 20.7 16.6 11.3 55 5.2 S 24 32 13 17 1017.6 1016.8 0.0
08/01:30pm 20.5 16.1 11.7 57 4.9 SSE 26 33 14 18 1017.9 1017.1 0.0
08/01:00pm 20.3 15.8 11.5 57 4.9 S 26 35 14 19 1018.1 1017.3 0.0
08/12:30pm 20.2 15.5 11.9 59 4.7 S 28 35 15 19 1018.7 1017.9 0.0
08/12:00pm 20.1 15.2 12.6 62 4.3 S 30 39 16 21 1019.1 1018.3 0.0
08/11:30am 20.0 14.9 11.8 59 4.6 S 30 39 16 21 1019.4 1018.6 0.0
08/11:00am 19.7 13.9 11.5 59 4.5 S 33 44 18 24 1019.6 1018.8 0.0
08/10:30am 19.9 14.5 12.2 61 4.3 S 32 41 17 22 1020.0 1019.2 0.0
08/10:00am 19.7 14.2 12.0 61 4.3 S 32 43 17 23 1019.9 1019.1 0.0
08/09:30am 19.6 13.8 11.6 60 4.5 S 33 43 18 23 1020.0 1019.2 0.0
08/09:00am 19.7 14.1 12.0 61 4.3 S 33 43 18 23 1019.8 1019.0 0.2
08/08:30am 19.6 13.5 11.6 60 4.5 S 35 46 19 25 1019.6 1018.8 0.2
08/08:00am 20.0 14.5 12.3 61 4.3 S 33 44 18 24 1019.4 1018.6 0.2
08/07:30am 19.8 14.3 12.3 62 4.2 S 33 43 18 23 1019.2 1018.4 0.2
08/07:00am 20.0 14.6 12.7 63 4.1 S 33 41 18 22 1018.6 1017.8 0.2
08/06:30am 20.2 14.8 12.9 63 4.2 S 33 46 18 25 1018.2 1017.4 0.2
08/06:00am 20.4 15.7 13.1 63 4.2 S 30 41 16 22 1017.9 1017.1 0.2
08/05:30am 20.8 15.9 13.7 64 4.1 S 32 43 17 23 1017.6 1016.8 0.2
08/05:00am 21.0 16.9 13.9 64 4.1 S 28 41 15 22 1017.3 1016.4 0.2
08/04:30am 21.1 16.8 14.5 66 3.9 S 30 41 16 22 1016.9 1016.0 0.2
08/04:00am 21.3 17.4 15.4 69 3.5 S 30 39 16 21 1016.7 1015.8 0.2
08/03:30am 21.4 18.3 15.7 70 3.4 S 26 37 14 20 1016.7 1015.8 0.2
08/03:00am 21.4 18.5 16.1 72 3.2 S 26 32 14 17 1016.6 1015.7 0.2
08/02:30am 21.5 19.4 16.2 72 3.2 S 22 30 12 16 1016.8 1015.9 0.0
08/02:00am 21.6 19.5 16.3 72 3.2 S 22 32 12 17 1016.8 1015.9 0.0
08/01:30am 21.6 20.6 18.8 84 1.8 S 22 30 12 16 1016.8 1015.9 0.0
08/01:00am 21.4 20.9 19.1 87 1.5 S 20 28 11 15 1017.0 1016.1 0.0
08/12:30am 21.7 22.2 20.9 95 0.5 S 19 26 10 14 1017.1 1016.2 0.0
08/12:00am 21.9 23.3 21.1 95 0.5 SSE 15 20 8 11 1017.3 1016.4 0.0
 
Date/Time
EST
Temp
°C
App
Temp
°C
Dew
Point
°C
Rel
Hum
%
Delta-T
°C
Wind Press
QNH
hPa
Press
MSL
hPa
Rain since
9am
mm
Dir  Spd
km/h
Gust
km/h
Spd
kts
Gust
kts
07/11:30pm 21.9 22.6 20.5 92 0.9 SSE 17 22 9 12 1017.4 1016.6 0.0
07/11:00pm 21.9 23.1 20.7 93 0.8 SSE 15 20 8 11 1017.6 1016.8 0.0
07/10:30pm 21.9 23.3 20.4 91 1.0 SSE 13 19 7 10 1017.7 1016.9 0.0
07/10:00pm 21.8 23.3 20.6 93 0.8 SE 13 20 7 11 1017.8 1017.0 0.0
07/09:30pm 21.9 23.5 20.7 93 0.8 SE 13 19 7 10 1017.8 1017.0 0.0
07/09:00pm 22.0 23.9 20.6 92 0.9 ESE 11 19 6 10 1017.9 1017.1 0.0
07/08:30pm 22.0 23.5 20.5 91 1.0 ESE 13 17 7 9 1017.8 1017.0 0.0
07/08:00pm 21.9 23.4 20.5 92 0.9 ESE 13 19 7 10 1017.6 1016.8 0.0
07/07:30pm 21.9 23.0 20.5 92 0.9 ESE 15 19 8 10 1017.3 1016.4 0.0
07/07:00pm 21.9 22.6 20.5 92 0.9 SE 17 24 9 13 1016.9 1016.0 0.0
07/06:30pm 22.0 23.1 20.5 91 1.0 ESE 15 22 8 12 1016.5 1015.6 0.0
07/06:00pm 21.9 22.6 20.5 92 0.9 SE 17 22 9 12 1016.3 1015.4 0.0
07/05:30pm 22.0 23.6 20.8 93 0.8 SE 13 17 7 9 1016.0 1015.1 0.0
07/05:00pm 22.5 23.8 20.8 90 1.1 SE 15 19 8 10 1015.7 1014.8 0.0
07/04:30pm 23.1 24.3 20.6 86 1.6 SE 15 19 8 10 1015.4 1014.5 0.0
07/04:00pm 23.3 25.2 20.6 85 1.8 SE 11 17 6 9 1015.1 1014.3 0.0
07/03:30pm 23.2 24.6 21.1 88 1.4 SSE 15 17 8 9 1015.1 1014.3 0.0
07/03:00pm 23.3 24.2 20.8 86 1.6 SSE 17 22 9 12 1015.0 1014.2 0.0
07/02:30pm 24.4 25.3 20.9 81 2.3 S 17 26 9 14 1014.9 1014.1 0.0
07/02:00pm 24.0 24.3 20.5 81 2.3 S 19 24 10 13 1015.1 1014.3 0.0
07/01:30pm 24.4 25.8 21.1 82 2.2 SE 15 20 8 11 1015.2 1014.4 0.0
07/01:00pm 23.8 24.8 21.1 85 1.8 SSE 17 24 9 13 1015.7 1014.8 0.0
07/12:30pm 24.3 25.5 21.4 84 1.9 SE 17 24 9 13 1015.8 1014.9 0.0
07/12:00pm 23.0 22.8 21.3 90 1.1 S 24 32 13 17 1016.0 1015.1 0.0
07/11:30am 22.6 22.5 21.4 93 0.8 S 24 32 13 17 1016.3 1015.4 0.0
07/11:00am 22.9 23.3 21.7 93 0.8 S 22 28 12 15 1016.7 1015.8 0.0
07/10:30am 23.2 24.4 22.2 94 0.7 S 19 24 10 13 1017.0 1016.1 0.0
07/10:00am 22.8 23.7 22.0 95 0.5 S 20 28 11 15 1017.1 1016.2 0.0
07/09:30am 23.5 26.1 21.9 91 1.1 SSE 11 17 6 9 1017.2 1016.3 0.0
07/09:00am 23.2 26.2 22.7 97 0.3 SE 11 17 6 9 1017.1 1016.2 30.0
07/08:30am 22.3 24.0 21.6 96 0.5 SE 15 20 8 11 1016.9 1016.0 30.0
07/08:00am 21.9 23.7 21.1 95 0.5 SE 13 20 7 11 1016.6 1015.7 28.2
07/07:30am 21.8 23.7 21.3 97 0.3 SSE 13 17 7 9 1016.5 1015.6 28.2
07/07:00am 21.7 23.3 21.4 98 0.2 SSE 15 19 8 10 1016.3 1015.4 28.2
07/06:30am 21.9 23.5 21.4 97 0.3 SSE 15 22 8 12 1016.0 1015.1 28.2
07/06:00am 22.0 24.4 21.5 97 0.3 SSE 11 17 6 9 1015.6 1014.7 28.2
07/05:30am 22.0 24.0 21.5 97 0.3 SSE 13 17 7 9 1015.2 1014.4 28.2
07/05:00am 22.0 23.6 21.5 97 0.3 SSE 15 20 8 11 1015.0 1014.2 28.2
07/04:30am 21.8 23.9 21.0 95 0.5 SE 11 17 6 9 1015.0 1014.2 28.2
07/04:00am 21.9 24.1 21.1 95 0.5 ESE 11 15 6 8 1015.1 1014.3 28.2
07/03:30am 21.7 23.0 20.9 95 0.5 ESE 15 20 8 11 1015.2 1014.4 28.2
07/03:00am 21.9 23.4 21.2 96 0.5 SSE 15 22 8 12 1015.1 1014.3 28.2
07/02:30am 21.7 23.0 20.9 95 0.5 SE 15 20 8 11 1015.4 1014.5 28.0
07/02:00am 21.8 23.2 21.0 95 0.5 SSE 15 20 8 11 1015.6 1014.7 28.0
07/01:30am 21.7 23.3 20.7 94 0.7 SE 13 20 7 11 1015.7 1014.8 28.0
07/01:00am 21.6 22.8 20.6 94 0.7 SE 15 19 8 10 1016.0 1015.1 28.0
07/12:30am 21.7 23.0 20.9 95 0.5 ESE 15 20 8 11 1016.3 1015.4 28.0
07/12:00am 21.5 23.0 20.5 94 0.7 SE 13 20 7 11 1016.4 1015.5 28.0
 
Date/Time
EST
Temp
°C
App
Temp
°C
Dew
Point
°C
Rel
Hum
%
Delta-T
°C
Wind Press
QNH
hPa
Press
MSL
hPa
Rain since
9am
mm
Dir  Spd
km/h
Gust
km/h
Spd
kts
Gust
kts
06/11:30pm 21.6 23.1 20.6 94 0.7 SE 13 19 7 10 1016.6 1015.7 28.0
06/11:00pm 21.4 23.2 20.4 94 0.6 SE 11 15 6 8 1016.8 1015.9 28.0
06/10:30pm 21.4 22.8 20.4 94 0.6 SE 13 19 7 10 1017.0 1016.1 28.0
06/10:00pm 21.4 22.5 20.4 94 0.6 SSE 15 20 8 11 1017.0 1016.1 28.0
06/09:30pm 21.7 22.6 20.9 95 0.5 SSE 17 22 9 12 1016.9 1016.0 28.0

Other formats

Comma delimited format used in spreadsheet applications
http://www.bom.gov.au/fwo/IDQ60801/IDQ60801.94372.axf

JavaScript Object Notation format (JSON) in row-major order
http://www.bom.gov.au/fwo/IDQ60801/IDQ60801.94372.json

Data quality

Most of these data are generated automatically and are frequently updated. Quality checks on data are not normally performed. It is possible for incorrect values to appear. Refer to information at About Latest Weather Observations and please check the disclaimer before using these data.